Date,TemperatureHighF,TemperatureAvgF,TemperatureLowF,DewpointHighF,DewpointAvgF,DewpointLowF,HumidityHigh,HumidityAvg,HumidityLow,PressureMaxIn,PressureMinIn,WindSpeedMaxMPH,WindSpeedAvgMPH,GustSpeedMaxMPH,PrecipitationSumIn
2013-1-1,54.1,45.0,38.8,39.0,32.6,28.0,87,64,41,30.24,30.18,9,1,0,0.00
2013-1-2,58.4,46.1,37.3,36.0,30.6,24.0,83,57,30,30.21,30.11,5,0,0,0.00
2013-1-3,59.5,45.6,36.6,41.0,35.8,31.0,88,70,49,30.24,30.13,2,0,0,0.00
2013-1-4,60.1,46.9,37.2,39.0,35.1,31.0,91,67,34,30.26,30.15,3,0,0,0.00
2013-1-5,53.9,47.4,40.3,48.0,43.1,37.0,95,85,70,30.23,30.04,4,0,0,0.37
2013-1-6,51.6,46.1,41.8,45.0,42.3,41.0,95,87,70,30.16,30.03,7,1,0,0.03
2013-1-7,60.4,48.0,39.9,47.0,43.3,39.0,97,85,56,30.24,30.13,3,0,0,0.00
2013-1-8,65.3,50.2,41.8,49.0,44.1,41.0,97,81,50,30.26,30.13,3,0,0,0.00
2013-1-9,52.9,46.4,39.2,49.0,41.7,34.0,95,84,64,30.14,29.99,4,0,0,0.00
2013-1-10,53.5,43.1,36.6,36.0,33.0,29.0,89,69,40,30.19,30.06,4,0,0,0.00
2013-1-11,53.9,43.9,38.0,39.0,33.4,29.0,91,68,46,30.25,30.12,1,0,0,0.00
2013-1-12,52.6,42.9,33.7,36.0,28.2,21.0,91,59,30,30.25,30.14,2,0,0,0.00
2013-1-13,53.9,41.5,31.2,30.0,22.0,12.0,66,47,31,30.26,30.18,4,0,0,0.00
2013-1-14,54.1,41.8,32.2,26.0,18.2,10.0,59,41,23,30.40,30.22,6,0,0,0.00
2013-1-15,56.9,43.5,34.4,29.0,26.0,21.0,77,53,26,30.47,30.39,4,0,0,0.00
2013-1-16,60.2,46.0,35.6,36.0,31.2,24.0,85,59,32,30.42,30.25,4,0,0,0.00
2013-1-17,65.5,51.3,39.6,38.0,30.1,22.0,84,49,21,30.26,30.14,8,1,0,0.00
2013-1-18,66.4,52.6,40.3,40.0,29.0,18.0,82,45,21,30.22,30.12,9,1,0,0.00
2013-1-19,65.6,51.8,37.6,36.0,28.8,18.0,87,46,20,30.23,30.14,5,1,0,0.00
2013-1-20,66.9,51.0,38.5,39.0,30.0,23.0,83,50,21,30.22,30.12,9,1,0,0.00
2013-1-21,67.9,50.5,38.9,38.0,32.7,25.0,77,53,28,30.17,30.07,4,0,0,0.00
2013-1-22,67.6,51.9,42.1,43.0,39.3,32.0,88,64,34,30.10,30.00,2,0,0,0.00
2013-1-23,54.8,51.6,48.9,52.0,46.8,41.0,96,84,70,30.08,29.94,6,0,0,0.18
2013-1-24,61.0,54.6,51.0,51.0,49.4,48.0,93,83,67,30.18,30.04,5,0,0,0.00
2013-1-25,68.9,57.0,50.5,54.0,51.1,49.0,96,82,55,30.18,30.04,4,0,0,0.00
2013-1-26,61.2,51.9,42.9,51.0,42.7,36.0,96,74,40,30.07,29.99,3,0,0,0.00
2013-1-27,58.4,47.0,39.5,39.0,35.9,30.0,88,68,34,30.17,30.06,3,0,0,0.00
2013-1-28,61.0,48.4,40.2,42.0,37.7,34.0,88,68,40,30.28,30.16,4,0,0,0.00
2013-1-29,60.4,49.3,40.8,43.0,39.5,37.0,87,71,43,30.36,30.27,4,0,0,0.00
2013-1-30,66.1,51.4,42.3,46.0,42.2,39.0,92,73,39,30.34,30.26,0,0,0,0.00
2013-1-31,68.4,53.3,41.9,46.0,42.8,40.0,93,70,43,30.28,30.17,3,0,0,0.00